Skip Navigation Links
NOAA logo - Click to go to the NOAA homepage
NOAA's National Weather Service
Alaska Aviation Weather Unit
  NWS logo - Click to go to the NWS homepage
Left Navbar Graphic     21 AKDT = 05 GMT

   
NOAA is celebrating 200 years of science, service, and stewardship. Visit the NOAA 200th celebration Web site to learn more.
USA.gov is the U.S. Government's official Web portal to all Federal, state and local government Web resources and services.
Facebook
NWS on Facebook

AAWU Home :: Display TAF Add Bookmark
TAF PAFB 270400Z 2704/2810 29006KT 9999 FEW090 BKN100 QNH2948INS
      TX12/2802Z TNM02/2714Z=
METAR PAFB 262358Z 28008KT 240V310 10SM FEW090 09/M02 A2953=

METAR PAFB 270058Z AUTO 29012KT 10SM CLR 09/M02 A2952=

METAR PAFB 270158Z AUTO 29011KT 10SM CLR 10/M03 A2952=

METAR PAFB 270258Z AUTO 32009KT 10SM CLR 09/M02 A2953=

METAR PAFB 270358Z AUTO 31008KT 10SM CLR 09/M02 A2954=


NOAA's National Weather Service
Alaska Aviation Weather Unit
6930 Sand Lake Road
Anchorage, AK 99502-1845
Disclaimer
Credits
Glossary
Privacy Policy
About Us
Career Opportunities
Contact AAWU Internet Services Site last modified: April, 17th 2012